createdAt,value
2022-09-20T00:01:27.074Z,99.90
2022-09-20T00:03:57.275Z,99.90
2022-09-20T00:06:27.836Z,99.90
2022-09-20T00:08:56.625Z,99.90
2022-09-20T00:11:28.519Z,99.90
2022-09-20T00:13:58.682Z,99.90
2022-09-20T00:16:29.295Z,99.90
2022-09-20T00:18:59.233Z,99.90
2022-09-20T00:21:29.524Z,99.90
2022-09-20T00:23:58.437Z,99.90
2022-09-20T00:26:29.262Z,99.90
2022-09-20T00:28:59.251Z,99.90
2022-09-20T00:31:27.799Z,99.90
2022-09-20T00:34:14.224Z,99.90
2022-09-20T00:36:42.683Z,99.90
2022-09-20T00:39:14.902Z,99.90
2022-09-20T00:41:45.201Z,99.90
2022-09-20T00:44:45.431Z,99.90
2022-09-20T00:47:21.841Z,99.90
2022-09-20T00:49:50.971Z,99.90
2022-09-20T00:52:19.573Z,99.90
2022-09-20T00:54:48.323Z,99.90
2022-09-20T00:57:18.378Z,99.90
2022-09-20T00:59:50.299Z,99.90
2022-09-20T01:02:21.486Z,99.90
2022-09-20T01:04:51.420Z,99.90
2022-09-20T01:07:23.302Z,99.90
2022-09-20T01:09:51.931Z,99.90
2022-09-20T01:12:24.602Z,99.90
2022-09-20T01:14:53.998Z,99.90
2022-09-20T01:17:24.368Z,99.90
2022-09-20T01:20:10.297Z,99.90
2022-09-20T01:22:46.558Z,99.90
2022-09-20T01:25:18.555Z,99.90
2022-09-20T01:27:49.527Z,99.90
2022-09-20T01:30:21.149Z,99.90
2022-09-20T01:33:01.402Z,99.90
2022-09-20T01:35:31.283Z,99.90
2022-09-20T01:38:14.763Z,99.90
2022-09-20T01:40:49.162Z,99.90
2022-09-20T01:43:27.261Z,99.90
2022-09-20T01:45:56.056Z,99.90
2022-09-20T01:48:32.154Z,99.90
2022-09-20T01:51:19.943Z,99.90
2022-09-20T01:54:11.255Z,99.90
2022-09-20T01:57:14.960Z,99.90
2022-09-20T02:00:08.051Z,99.90
2022-09-20T02:03:31.315Z,99.90
2022-09-20T02:06:30.060Z,99.90
2022-09-20T02:09:16.292Z,99.90
2022-09-20T02:12:19.756Z,99.90
2022-09-20T02:14:58.512Z,99.90
2022-09-20T02:17:35.316Z,99.90
2022-09-20T02:20:18.586Z,99.90
2022-09-20T02:22:59.988Z,99.90
2022-09-20T02:25:47.236Z,99.90
2022-09-20T02:28:27.026Z,99.90
2022-09-20T02:31:02.528Z,99.90
2022-09-20T02:33:50.048Z,99.90
2022-09-20T02:36:31.866Z,99.90
2022-09-20T02:39:08.034Z,99.90
2022-09-20T02:41:56.848Z,99.90
2022-09-20T02:44:41.706Z,99.90
2022-09-20T02:47:19.413Z,99.90
2022-09-20T02:50:04.474Z,99.90
2022-09-20T02:52:39.854Z,99.90
2022-09-20T02:55:14.298Z,99.90
2022-09-20T02:57:49.615Z,99.90
2022-09-20T03:00:21.241Z,99.90
2022-09-20T03:03:01.688Z,99.90
2022-09-20T03:05:40.307Z,99.90
2022-09-20T03:08:26.309Z,99.90
2022-09-20T03:11:03.024Z,99.90
2022-09-20T03:13:48.120Z,99.90
2022-09-20T03:16:23.989Z,99.90
2022-09-20T03:19:02.005Z,99.90
2022-09-20T03:21:43.536Z,99.90
2022-09-20T03:24:20.821Z,99.90
2022-09-20T03:26:56.156Z,99.90
2022-09-20T03:29:38.822Z,99.90
2022-09-20T03:32:19.067Z,99.90
2022-09-20T03:34:56.448Z,99.90
2022-09-20T03:37:45.286Z,99.90
2022-09-20T03:40:46.406Z,99.90
2022-09-20T03:43:27.455Z,99.90
2022-09-20T03:46:10.734Z,99.90
2022-09-20T03:49:00.518Z,99.90
2022-09-20T03:51:34.133Z,99.90
2022-09-20T03:54:38.217Z,99.90
2022-09-20T03:57:31.014Z,99.90
2022-09-20T04:00:33.936Z,99.90
2022-09-20T04:03:26.811Z,99.90
2022-09-20T04:06:10.034Z,99.90
2022-09-20T04:08:56.935Z,99.90
2022-09-20T04:11:32.694Z,99.90
2022-09-20T04:14:11.636Z,99.90
2022-09-20T04:16:47.250Z,99.90
2022-09-20T04:19:24.604Z,99.90
2022-09-20T04:21:56.985Z,99.90
2022-09-20T04:24:33.285Z,99.90
2022-09-20T04:27:05.631Z,99.90
2022-09-20T04:29:41.467Z,99.90
2022-09-20T04:32:19.105Z,99.90
2022-09-20T04:35:09.468Z,99.90
2022-09-20T04:37:39.715Z,99.90
2022-09-20T04:40:29.124Z,99.90
2022-09-20T04:43:32.951Z,99.90
2022-09-20T04:46:27.104Z,99.90
2022-09-20T04:49:25.580Z,99.90
2022-09-20T04:52:26.875Z,99.90
2022-09-20T04:55:26.885Z,99.90
2022-09-20T04:58:29.270Z,99.90
2022-09-20T05:01:23.099Z,99.90
2022-09-20T05:04:22.707Z,99.90
2022-09-20T05:07:20.669Z,99.90
2022-09-20T05:10:10.176Z,99.90
2022-09-20T05:13:07.180Z,99.90
2022-09-20T05:15:43.580Z,99.90
2022-09-20T05:18:41.381Z,99.90
2022-09-20T05:21:24.587Z,99.90
2022-09-20T05:24:12.476Z,99.90
2022-09-20T05:26:56.708Z,99.90
2022-09-20T05:29:30.384Z,99.90
2022-09-20T05:32:07.975Z,99.90
2022-09-20T05:34:45.666Z,99.90
2022-09-20T05:37:23.877Z,99.90
2022-09-20T05:39:59.380Z,99.90
2022-09-20T05:42:40.765Z,99.90
2022-09-20T05:45:33.934Z,99.90
2022-09-20T05:48:12.197Z,99.90
2022-09-20T05:50:50.957Z,99.90
2022-09-20T05:53:54.111Z,99.90
2022-09-20T05:56:34.293Z,99.90
2022-09-20T05:59:23.297Z,99.90
2022-09-20T06:02:11.194Z,99.90
2022-09-20T06:04:45.640Z,99.90
2022-09-20T06:07:23.901Z,99.90
2022-09-20T06:10:19.906Z,99.90
2022-09-20T06:12:55.073Z,99.90
2022-09-20T06:15:32.816Z,99.90
2022-09-20T06:18:18.576Z,99.90
2022-09-20T06:20:54.285Z,99.90
2022-09-20T06:23:23.222Z,99.90
2022-09-20T06:25:57.296Z,98.70
2022-09-20T06:28:29.500Z,98.20
2022-09-20T06:30:58.374Z,96.00
2022-09-20T06:33:28.323Z,94.40
2022-09-20T06:36:19.519Z,95.70
2022-09-20T06:39:14.523Z,93.90
2022-09-20T06:41:44.695Z,92.50
2022-09-20T06:44:12.706Z,92.50
2022-09-20T06:46:41.677Z,92.90
2022-09-20T06:49:09.769Z,92.60
2022-09-20T06:51:39.972Z,92.60
2022-09-20T06:54:11.315Z,90.80
2022-09-20T06:56:39.960Z,89.50
2022-09-20T06:59:10.435Z,87.80
2022-09-20T07:01:38.675Z,84.80
2022-09-20T07:04:07.501Z,82.60
2022-09-20T07:06:35.794Z,82.50
2022-09-20T07:09:04.252Z,84.60
2022-09-20T07:11:34.918Z,81.90
2022-09-20T07:14:03.434Z,83.80
2022-09-20T07:16:32.881Z,85.70
2022-09-20T07:19:00.989Z,82.80
2022-09-20T07:21:29.016Z,82.80
2022-09-20T07:23:57.916Z,81.00
2022-09-20T07:26:29.356Z,83.90
2022-09-20T07:28:59.694Z,84.20
2022-09-20T07:31:29.934Z,84.30
2022-09-20T07:33:59.359Z,83.70
2022-09-20T07:36:27.503Z,84.50
2022-09-20T07:38:55.962Z,84.80
2022-09-20T07:41:25.749Z,80.90
2022-09-20T07:43:53.831Z,81.20
2022-09-20T07:46:24.273Z,84.40
2022-09-20T07:48:52.510Z,89.40
2022-09-20T07:51:22.010Z,89.10
2022-09-20T07:53:50.321Z,87.20
2022-09-20T07:56:19.047Z,87.00
2022-09-20T07:58:52.180Z,85.40
2022-09-20T08:01:22.780Z,83.70
2022-09-20T08:03:51.972Z,85.40
2022-09-20T08:06:21.876Z,85.40
2022-09-20T08:08:51.626Z,85.80
2022-09-20T08:11:21.890Z,83.20
2022-09-20T08:14:08.065Z,81.30
2022-09-20T08:16:40.446Z,83.70
2022-09-20T08:19:08.735Z,83.50
2022-09-20T08:21:39.845Z,79.00
2022-09-20T08:24:08.134Z,80.30
2022-09-20T08:26:37.106Z,81.70
2022-09-20T08:29:06.451Z,82.70
2022-09-20T08:31:37.659Z,77.10
2022-09-20T08:34:08.715Z,81.40
2022-09-20T08:36:41.842Z,84.60
2022-09-20T08:42:03.071Z,82.50
2022-09-20T08:44:35.847Z,84.10
2022-09-20T08:47:13.751Z,86.80
2022-09-20T08:49:46.162Z,90.50
2022-09-20T08:52:19.959Z,91.50
2022-09-20T08:54:48.248Z,92.70
2022-09-20T08:57:18.667Z,93.90
2022-09-20T08:59:47.047Z,94.40
2022-09-20T09:02:18.919Z,93.70
2022-09-20T09:04:48.332Z,94.50
2022-09-20T09:07:20.939Z,96.40
2022-09-20T09:09:51.323Z,95.30
2022-09-20T09:12:24.397Z,95.00
2022-09-20T09:14:55.899Z,92.00
2022-09-20T09:17:27.752Z,90.30
2022-09-20T09:19:57.360Z,83.80
2022-09-20T09:22:35.283Z,83.80
2022-09-20T09:25:29.481Z,79.20
2022-09-20T09:27:58.809Z,76.40
2022-09-20T09:30:29.246Z,75.20
2022-09-20T09:33:16.760Z,75.10
2022-09-20T09:35:45.622Z,72.70
2022-09-20T09:38:24.105Z,73.00
2022-09-20T09:40:54.695Z,80.50
2022-09-20T09:43:27.096Z,78.20
2022-09-20T09:45:55.480Z,84.20
2022-09-20T09:48:26.988Z,85.00
2022-09-20T09:51:10.941Z,85.20
2022-09-20T09:53:41.103Z,83.90
2022-09-20T09:56:41.940Z,89.70
2022-09-20T09:59:33.561Z,87.70
2022-09-20T10:02:16.514Z,85.40
2022-09-20T10:04:53.978Z,86.70
2022-09-20T10:07:31.847Z,85.10
2022-09-20T10:10:09.410Z,87.00
2022-09-20T10:12:52.714Z,87.30
2022-09-20T10:15:29.919Z,90.60
2022-09-20T10:18:09.759Z,87.70
2022-09-20T10:20:55.836Z,85.90
2022-09-20T10:24:03.773Z,86.10
2022-09-20T10:27:02.738Z,86.10
2022-09-20T10:29:41.234Z,83.60
2022-09-20T10:32:26.165Z,88.10
2022-09-20T10:35:06.125Z,88.90
2022-09-20T10:37:49.476Z,89.50
2022-09-20T10:40:51.398Z,89.90
2022-09-20T10:43:32.436Z,90.90
2022-09-20T10:46:32.219Z,92.90
2022-09-20T10:49:06.166Z,94.10
2022-09-20T10:51:45.562Z,96.10
2022-09-20T10:54:27.982Z,97.70
2022-09-20T10:57:09.720Z,96.90
2022-09-20T10:59:48.206Z,95.90
2022-09-20T11:02:36.902Z,95.50
2022-09-20T11:05:26.201Z,95.20
2022-09-20T11:08:08.962Z,95.00
2022-09-20T11:10:42.071Z,92.20
2022-09-20T11:13:21.198Z,91.90
2022-09-20T11:15:56.360Z,93.10
2022-09-20T11:18:32.813Z,93.00
2022-09-20T11:21:08.704Z,92.60
2022-09-20T11:23:46.051Z,92.20
2022-09-20T11:26:20.910Z,93.30
2022-09-20T11:28:52.002Z,93.60
2022-09-20T11:31:27.150Z,93.90
2022-09-20T11:34:00.339Z,93.60
2022-09-20T11:36:33.337Z,93.00
2022-09-20T11:39:05.896Z,92.70
2022-09-20T11:41:34.558Z,93.00
2022-09-20T11:44:07.806Z,92.00
2022-09-20T11:46:42.584Z,92.10
2022-09-20T11:49:17.714Z,90.90
2022-09-20T11:52:12.456Z,89.40
2022-09-20T11:55:08.547Z,90.00
2022-09-20T11:57:36.635Z,88.20
2022-09-20T12:00:07.973Z,88.70
2022-09-20T12:02:42.559Z,87.50
2022-09-20T12:05:27.788Z,86.00
2022-09-20T12:07:58.232Z,89.90
2022-09-20T12:10:30.498Z,83.90
2022-09-20T12:13:01.070Z,80.80
2022-09-20T12:15:33.007Z,79.20
2022-09-20T12:18:29.426Z,77.90
2022-09-20T12:21:02.598Z,78.60
2022-09-20T12:24:02.809Z,75.80
2022-09-20T12:26:45.779Z,75.00
2022-09-20T12:29:57.317Z,76.90
2022-09-20T12:32:44.897Z,82.20
2022-09-20T12:36:00.640Z,84.70
2022-09-20T12:38:46.472Z,82.40
2022-09-20T12:41:27.563Z,83.80
2022-09-20T12:44:00.492Z,88.20
2022-09-20T12:46:37.976Z,89.00
2022-09-20T12:49:59.081Z,87.70
2022-09-20T12:53:01.121Z,87.90
2022-09-20T12:55:49.745Z,90.80
2022-09-20T12:58:27.987Z,92.00
2022-09-20T13:01:32.315Z,91.60
2022-09-20T13:04:37.757Z,92.40
2022-09-20T13:07:38.938Z,92.50
2022-09-20T13:10:26.229Z,92.80
2022-09-20T13:13:01.230Z,93.00
2022-09-20T13:15:29.624Z,92.80
2022-09-20T13:18:00.702Z,92.60
2022-09-20T13:20:31.433Z,94.00
2022-09-20T13:23:01.163Z,93.90
2022-09-20T13:25:30.360Z,95.00
2022-09-20T13:28:08.356Z,95.10
2022-09-20T13:30:36.992Z,93.70
2022-09-20T13:33:22.378Z,93.10
2022-09-20T13:35:54.507Z,93.30
2022-09-20T13:38:25.378Z,94.30
2022-09-20T13:40:55.066Z,94.80
2022-09-20T13:43:29.257Z,95.40
2022-09-20T13:46:00.286Z,96.30
2022-09-20T13:48:29.669Z,95.60
2022-09-20T13:50:58.571Z,95.20
2022-09-20T13:53:41.120Z,95.10
2022-09-20T13:56:12.681Z,95.20
2022-09-20T13:58:42.923Z,94.40
2022-09-20T14:01:24.408Z,95.20
2022-09-20T14:03:53.880Z,95.20
2022-09-20T14:06:27.107Z,95.00
2022-09-20T14:08:55.703Z,95.00
2022-09-20T14:11:27.942Z,94.40
2022-09-20T14:13:59.130Z,95.10
2022-09-20T14:16:32.087Z,95.20
2022-09-20T14:19:00.991Z,95.00
2022-09-20T14:21:32.931Z,95.60
2022-09-20T14:24:03.635Z,95.30
2022-09-20T14:26:34.824Z,94.90
2022-09-20T14:29:31.605Z,94.70
2022-09-20T14:32:01.214Z,95.20
2022-09-20T14:34:29.662Z,95.20
2022-09-20T14:37:08.440Z,95.00
2022-09-20T14:39:44.885Z,95.90
2022-09-20T14:42:21.074Z,95.40
2022-09-20T14:44:53.423Z,94.60
2022-09-20T14:47:29.429Z,95.20
2022-09-20T14:49:59.094Z,95.00
2022-09-20T14:52:38.835Z,95.00
2022-09-20T14:55:28.247Z,95.30
2022-09-20T14:58:01.409Z,93.60
2022-09-20T15:00:31.229Z,92.70
2022-09-20T15:03:06.746Z,93.60
2022-09-20T15:05:34.815Z,94.40
2022-09-20T15:08:03.737Z,95.20
2022-09-20T15:10:31.935Z,95.50
2022-09-20T15:13:00.021Z,96.20
2022-09-20T15:15:28.200Z,96.30
2022-09-20T15:17:57.618Z,95.30
2022-09-20T15:20:25.969Z,94.10
2022-09-20T15:22:54.126Z,94.80
2022-09-20T15:25:22.774Z,94.20
2022-09-20T15:27:51.802Z,93.30
2022-09-20T15:30:21.038Z,92.90
2022-09-20T15:32:49.572Z,93.20
2022-09-20T15:35:19.152Z,93.50
2022-09-20T15:37:47.170Z,94.70
2022-09-20T15:40:15.590Z,94.90
2022-09-20T15:42:43.968Z,94.90
2022-09-20T15:45:13.413Z,95.20
2022-09-20T15:47:41.716Z,93.80
2022-09-20T15:50:10.894Z,94.30
2022-09-20T15:52:41.621Z,94.50
2022-09-20T15:55:10.910Z,94.60
2022-09-20T15:57:39.530Z,94.70
2022-09-20T16:00:09.162Z,94.50
2022-09-20T16:02:37.479Z,94.70
2022-09-20T16:05:06.208Z,95.10
2022-09-20T16:07:34.355Z,95.60
2022-09-20T16:10:03.937Z,95.40
2022-09-20T16:12:31.979Z,95.30
2022-09-20T16:15:00.018Z,95.40
2022-09-20T16:17:41.962Z,95.50
2022-09-20T16:20:10.913Z,95.60
2022-09-20T16:22:38.941Z,96.00
2022-09-20T16:25:09.341Z,96.10
2022-09-20T16:27:37.391Z,96.30
2022-09-20T16:30:06.143Z,95.90
2022-09-20T16:32:34.516Z,96.50
2022-09-20T16:35:03.944Z,96.60
2022-09-20T16:37:32.786Z,97.00
2022-09-20T16:40:01.137Z,97.40
2022-09-20T16:42:30.627Z,97.30
2022-09-20T16:44:58.809Z,98.20
2022-09-20T16:47:26.867Z,97.70
2022-09-20T16:49:54.969Z,98.00
2022-09-20T16:52:24.448Z,98.70
2022-09-20T16:54:52.490Z,98.80
2022-09-20T16:57:22.356Z,99.10
2022-09-20T16:59:54.199Z,99.90
2022-09-20T17:02:22.295Z,99.90
2022-09-20T17:04:50.441Z,99.90
2022-09-20T17:07:18.528Z,99.90
2022-09-20T17:09:46.603Z,99.90
2022-09-20T17:12:18.737Z,99.90
2022-09-20T17:14:46.842Z,99.90
2022-09-20T17:17:16.284Z,99.90
2022-09-20T17:19:44.313Z,99.90
2022-09-20T17:22:12.388Z,99.90
2022-09-20T17:24:40.535Z,99.90
2022-09-20T17:27:09.371Z,99.90
2022-09-20T17:29:37.407Z,99.90
2022-09-20T17:32:05.566Z,99.90
2022-09-20T17:34:35.526Z,99.90
2022-09-20T17:37:04.731Z,99.90
2022-09-20T17:39:32.875Z,99.90
2022-09-20T17:42:01.455Z,99.90
2022-09-20T17:44:29.879Z,99.90
2022-09-20T17:46:57.984Z,99.90
2022-09-20T17:49:27.667Z,99.90
2022-09-20T17:51:57.472Z,99.90
2022-09-20T17:54:26.256Z,99.90
2022-09-20T17:56:55.941Z,99.90
2022-09-20T17:59:24.572Z,99.90
2022-09-20T18:01:54.305Z,99.90
2022-09-20T18:04:24.542Z,99.90
2022-09-20T18:06:54.235Z,99.90
2022-09-20T18:09:25.366Z,99.90
2022-09-20T18:11:54.764Z,99.90
2022-09-20T18:14:24.172Z,99.90
2022-09-20T18:16:53.859Z,99.90
2022-09-20T18:19:22.785Z,99.90
2022-09-20T18:21:51.251Z,99.90
2022-09-20T18:24:19.447Z,99.90
2022-09-20T18:26:48.840Z,99.90
2022-09-20T18:29:17.923Z,99.90
2022-09-20T18:31:48.762Z,99.90
2022-09-20T18:34:18.840Z,99.90
2022-09-20T18:36:52.869Z,99.90
2022-09-20T18:39:21.783Z,99.90
2022-09-20T18:41:53.096Z,99.90
2022-09-20T18:44:22.548Z,99.90
2022-09-20T18:46:54.847Z,99.90
2022-09-20T18:49:23.616Z,99.90
2022-09-20T18:51:51.781Z,99.90
2022-09-20T18:54:20.060Z,99.90
2022-09-20T18:56:51.529Z,99.90
2022-09-20T18:59:21.784Z,99.90
2022-09-20T19:02:24.018Z,99.90
2022-09-20T19:05:17.215Z,99.90
2022-09-20T19:07:55.031Z,99.90
2022-09-20T19:10:31.405Z,99.90
2022-09-20T19:13:07.294Z,99.90
2022-09-20T19:15:47.582Z,99.90
2022-09-20T19:18:44.339Z,99.90
2022-09-20T19:21:22.465Z,99.90
2022-09-20T19:24:03.510Z,99.90
2022-09-20T19:26:37.888Z,99.90
2022-09-20T19:29:20.167Z,99.90
2022-09-20T19:31:49.663Z,99.90
2022-09-20T19:34:21.810Z,99.90
2022-09-20T19:37:01.832Z,99.90
2022-09-20T19:39:43.406Z,99.90
2022-09-20T19:42:20.005Z,99.90
2022-09-20T19:45:03.799Z,99.90
2022-09-20T19:47:42.338Z,99.90
2022-09-20T19:50:16.892Z,99.90
2022-09-20T19:52:45.736Z,99.90
2022-09-20T19:55:15.204Z,99.90
2022-09-20T19:57:46.981Z,99.90
2022-09-20T20:00:19.297Z,99.90
2022-09-20T20:02:48.469Z,99.90
2022-09-20T20:05:19.142Z,99.90
2022-09-20T20:07:53.475Z,99.90
2022-09-20T20:10:29.082Z,99.90
2022-09-20T20:13:27.607Z,99.90
2022-09-20T20:16:02.368Z,99.90
2022-09-20T20:18:38.925Z,99.90
2022-09-20T20:21:14.234Z,99.90
2022-09-20T20:24:00.539Z,99.90
2022-09-20T20:26:28.735Z,99.90
2022-09-20T20:28:56.796Z,99.90
2022-09-20T20:31:26.274Z,99.90
2022-09-20T20:33:55.440Z,99.90
2022-09-20T20:36:23.559Z,99.90
2022-09-20T20:38:53.094Z,99.90
2022-09-20T20:41:22.304Z,99.90
2022-09-20T20:43:57.131Z,99.90
2022-09-20T20:46:27.029Z,99.90
2022-09-20T20:48:55.144Z,99.90
2022-09-20T20:51:24.342Z,99.90
2022-09-20T20:53:55.038Z,99.90
2022-09-20T20:56:25.642Z,99.90
2022-09-20T20:58:54.314Z,99.90
2022-09-20T21:01:25.282Z,99.90
2022-09-20T21:03:56.057Z,99.90
2022-09-20T21:06:26.111Z,99.90
2022-09-20T21:08:54.170Z,99.90
2022-09-20T21:11:24.160Z,99.90
2022-09-20T21:13:52.607Z,99.90
2022-09-20T21:16:22.948Z,99.90
2022-09-20T21:18:51.653Z,99.90
2022-09-20T21:21:23.016Z,99.90
2022-09-20T21:23:52.824Z,99.90
2022-09-20T21:26:21.838Z,99.90
2022-09-20T21:28:53.078Z,99.90
2022-09-20T21:31:24.094Z,99.90
2022-09-20T21:33:52.309Z,99.90
2022-09-20T21:36:23.950Z,99.90
2022-09-20T21:38:52.303Z,99.90
2022-09-20T21:41:23.127Z,99.90
2022-09-20T21:43:54.877Z,99.90
2022-09-20T21:46:28.333Z,99.90
2022-09-20T21:48:57.670Z,99.90
2022-09-20T21:51:29.760Z,99.90
2022-09-20T21:53:59.570Z,99.90
2022-09-20T21:56:30.349Z,99.90
2022-09-20T21:58:59.078Z,99.90
2022-09-20T22:01:28.606Z,99.90
2022-09-20T22:04:00.121Z,99.90
2022-09-20T22:06:31.301Z,99.90
2022-09-20T22:09:01.559Z,99.90
2022-09-20T22:11:31.377Z,99.90
2022-09-20T22:14:00.184Z,99.90
2022-09-20T22:16:29.891Z,99.90
2022-09-20T22:18:59.646Z,99.90
2022-09-20T22:21:31.396Z,99.90
2022-09-20T22:24:01.739Z,99.90
2022-09-20T22:26:32.001Z,99.90
2022-09-20T22:29:00.651Z,99.90
2022-09-20T22:31:30.692Z,99.90
2022-09-20T22:34:01.007Z,99.90
2022-09-20T22:36:32.666Z,99.90
2022-09-20T22:39:00.989Z,99.90
2022-09-20T22:41:29.373Z,99.90
2022-09-20T22:43:57.764Z,99.90
2022-09-20T22:46:28.142Z,99.90
2022-09-20T22:48:56.727Z,99.90
2022-09-20T22:51:26.683Z,99.90
2022-09-20T22:53:56.699Z,99.90
2022-09-20T22:56:28.174Z,99.90
2022-09-20T22:59:00.008Z,99.90
2022-09-20T23:01:30.305Z,99.90
2022-09-20T23:04:00.128Z,99.90
2022-09-20T23:06:31.027Z,99.90
2022-09-20T23:09:02.517Z,99.90
2022-09-20T23:11:31.468Z,99.90
2022-09-20T23:14:01.546Z,99.90
2022-09-20T23:16:31.863Z,99.90
2022-09-20T23:19:01.561Z,99.90
2022-09-20T23:21:31.242Z,99.90
2022-09-20T23:24:02.576Z,99.90
2022-09-20T23:26:32.401Z,99.90
2022-09-20T23:29:02.469Z,99.90
2022-09-20T23:31:32.258Z,99.90
2022-09-20T23:34:02.234Z,99.90
2022-09-20T23:36:32.970Z,99.90
2022-09-20T23:39:02.671Z,99.90
2022-09-20T23:41:31.024Z,99.90
2022-09-20T23:43:59.528Z,99.90
2022-09-20T23:46:28.589Z,99.90
2022-09-20T23:48:56.931Z,99.90
2022-09-20T23:51:26.869Z,99.90
2022-09-20T23:53:56.117Z,99.90
2022-09-20T23:56:26.853Z,99.90
2022-09-20T23:58:55.344Z,99.90
